createdAt,value
2019-04-14T00:00:57.584Z,4.30
2019-04-14T00:03:47.636Z,3.40
2019-04-14T00:06:15.887Z,3.90
2019-04-14T00:08:43.786Z,3.13
2019-04-14T00:11:12.583Z,3.60
2019-04-14T00:13:41.242Z,2.70
2019-04-14T00:16:09.600Z,3.50
2019-04-14T00:18:38.224Z,3.37
2019-04-14T00:21:06.578Z,3.30
2019-04-14T00:23:34.781Z,3.30
2019-04-14T00:26:25.457Z,2.80
2019-04-14T00:28:53.469Z,3.27
2019-04-14T00:31:21.647Z,3.20
2019-04-14T00:33:49.952Z,2.97
2019-04-14T00:36:39.935Z,2.63
2019-04-14T00:39:18.345Z,2.60
2019-04-14T00:41:56.631Z,3.07
2019-04-14T00:44:39.459Z,2.70
2019-04-14T00:47:26.935Z,2.80
2019-04-14T00:49:55.162Z,2.70
2019-04-14T00:52:23.414Z,2.27
2019-04-14T00:54:52.119Z,2.73
2019-04-14T00:57:20.136Z,2.53
2019-04-14T00:59:48.735Z,2.70
2019-04-14T01:02:16.697Z,2.73
2019-04-14T01:04:44.771Z,2.50
2019-04-14T01:07:13.066Z,2.07
2019-04-14T01:09:41.222Z,2.77
2019-04-14T01:12:08.886Z,2.93
2019-04-14T01:14:36.588Z,2.40
2019-04-14T01:17:04.797Z,2.57
2019-04-14T01:19:33.114Z,2.80
2019-04-14T01:22:01.046Z,2.73
2019-04-14T01:24:29.285Z,2.70
2019-04-14T01:26:57.130Z,2.33
2019-04-14T01:29:25.496Z,1.90
2019-04-14T01:31:53.677Z,2.50
2019-04-14T01:34:21.681Z,2.63
2019-04-14T01:36:49.685Z,2.67
2019-04-14T01:39:17.657Z,2.70
2019-04-14T01:41:45.644Z,2.50
2019-04-14T01:44:13.539Z,2.73
2019-04-14T01:46:41.262Z,2.30
2019-04-14T01:49:09.336Z,2.87
2019-04-14T01:52:01.454Z,2.80
2019-04-14T01:55:03.274Z,2.70
2019-04-14T01:58:08.374Z,2.50
2019-04-14T02:00:53.069Z,3.00
2019-04-14T02:03:21.692Z,2.63
2019-04-14T02:05:49.673Z,1.70
2019-04-14T02:08:17.703Z,2.30
2019-04-14T02:10:45.668Z,2.20
2019-04-14T02:13:13.607Z,2.10
2019-04-14T02:15:42.030Z,2.00
2019-04-14T02:18:10.010Z,1.70
2019-04-14T02:20:38.181Z,2.43
2019-04-14T02:23:06.198Z,1.93
2019-04-14T02:25:33.922Z,1.53
2019-04-14T02:28:02.317Z,2.23
2019-04-14T02:30:36.282Z,2.27
2019-04-14T02:33:36.987Z,2.17
2019-04-14T02:36:05.628Z,2.10
2019-04-14T02:38:36.023Z,2.27
2019-04-14T02:43:31.917Z,1.93
2019-04-14T02:45:57.542Z,2.23
2019-04-14T02:50:47.774Z,3.27
2019-04-14T02:56:04.497Z,2.97
2019-04-14T02:58:28.532Z,2.27
2019-04-14T03:00:48.626Z,2.25
2019-04-14T03:03:24.072Z,2.80
2019-04-14T03:05:54.393Z,3.13
2019-04-14T03:08:25.561Z,2.63
2019-04-14T03:10:48.027Z,3.27
2019-04-14T03:15:48.129Z,2.57
2019-04-14T03:18:37.873Z,2.50
2019-04-14T03:21:49.133Z,1.93
2019-04-14T03:24:12.941Z,1.60
2019-04-14T03:26:48.381Z,2.60
2019-04-14T03:29:27.176Z,2.40
2019-04-14T03:34:34.417Z,2.13
2019-04-14T03:39:27.302Z,2.17
2019-04-14T03:44:20.946Z,2.60
2019-04-14T03:54:10.951Z,2.60
2019-04-14T03:56:47.294Z,2.47
2019-04-14T03:59:15.794Z,2.00
2019-04-14T04:01:43.544Z,2.23
2019-04-14T04:04:11.891Z,2.47
2019-04-14T04:06:39.929Z,2.03
2019-04-14T04:09:08.373Z,2.13
2019-04-14T04:11:36.626Z,2.30
2019-04-14T04:14:05.378Z,2.67
2019-04-14T04:16:52.921Z,2.80
2019-04-14T04:19:49.217Z,3.27
2019-04-14T04:22:43.447Z,2.93
2019-04-14T04:25:31.130Z,3.27
2019-04-14T04:28:16.756Z,3.47
2019-04-14T04:31:04.554Z,3.80
2019-04-14T04:34:10.034Z,3.90
2019-04-14T04:36:59.973Z,3.63
2019-04-14T04:39:34.633Z,3.73
2019-04-14T04:42:02.577Z,1.87
2019-04-14T04:44:31.316Z,1.53
2019-04-14T04:46:59.157Z,1.63
2019-04-14T04:49:30.567Z,1.80
2019-04-14T04:51:58.224Z,1.30
2019-04-14T04:54:25.765Z,1.50
2019-04-14T04:56:53.767Z,1.30
2019-04-14T04:59:21.530Z,1.83
2019-04-14T05:01:49.406Z,1.37
2019-04-14T05:04:17.634Z,1.00
2019-04-14T05:06:59.226Z,1.40
2019-04-14T05:09:47.435Z,1.63
2019-04-14T05:12:24.078Z,2.00
2019-04-14T05:15:01.154Z,2.07
2019-04-14T05:17:29.879Z,1.20
2019-04-14T05:19:58.405Z,1.60
2019-04-14T05:22:26.770Z,1.10
2019-04-14T05:24:55.037Z,1.23
2019-04-14T05:27:23.261Z,1.60
2019-04-14T05:29:51.557Z,1.23
2019-04-14T05:32:19.481Z,1.20
2019-04-14T05:34:47.931Z,1.23
2019-04-14T05:37:16.066Z,1.40
2019-04-14T05:39:44.063Z,1.27
2019-04-14T05:42:17.807Z,0.83
2019-04-14T05:44:40.916Z,0.70
2019-04-14T05:47:08.720Z,0.73
2019-04-14T05:49:44.258Z,3.07
2019-04-14T05:52:05.666Z,0.90
2019-04-14T05:54:33.961Z,0.60
2019-04-14T05:57:02.332Z,0.60
2019-04-14T05:59:30.749Z,0.60
2019-04-14T06:01:59.424Z,0.70
2019-04-14T06:04:27.000Z,0.90
2019-04-14T06:06:54.584Z,0.50
2019-04-14T06:09:22.071Z,0.77
2019-04-14T06:11:49.617Z,0.77
2019-04-14T06:14:17.379Z,0.70
2019-04-14T06:16:44.877Z,2.00
2019-04-14T06:19:12.369Z,0.50
2019-04-14T06:21:39.824Z,0.77
2019-04-14T06:24:07.328Z,1.30
2019-04-14T06:26:34.963Z,0.70
2019-04-14T06:29:02.408Z,0.60
2019-04-14T06:31:52.170Z,0.80
2019-04-14T06:34:42.198Z,0.40
2019-04-14T06:37:20.695Z,0.73
2019-04-14T06:39:50.111Z,0.63
2019-04-14T06:42:17.633Z,0.40
2019-04-14T06:44:45.049Z,0.80
2019-04-14T06:47:12.570Z,0.40
2019-04-14T06:49:48.787Z,0.60
2019-04-14T06:52:09.560Z,0.50
2019-04-14T06:54:37.063Z,0.60
2019-04-14T06:57:04.528Z,0.50
2019-04-14T06:59:32.005Z,0.50
2019-04-14T07:02:01.927Z,0.50
2019-04-14T07:04:28.982Z,0.47
2019-04-14T07:06:56.466Z,0.23
2019-04-14T07:09:23.906Z,0.30
2019-04-14T07:11:51.317Z,0.33
2019-04-14T07:14:18.871Z,0.40
2019-04-14T07:16:51.290Z,0.40
2019-04-14T07:19:18.186Z,0.40
2019-04-14T07:21:45.705Z,0.37
2019-04-14T07:24:13.199Z,0.40
2019-04-14T07:26:40.813Z,0.30
2019-04-14T07:29:08.298Z,0.30
2019-04-14T07:31:44.682Z,0.43
2019-04-14T07:34:31.775Z,0.30
2019-04-14T07:37:27.821Z,0.30
2019-04-14T07:40:20.542Z,0.30
2019-04-14T07:42:56.212Z,0.90
2019-04-14T07:45:38.306Z,1.17
2019-04-14T07:48:24.430Z,1.03
2019-04-14T07:51:11.422Z,1.00
2019-04-14T07:53:46.722Z,1.77
2019-04-14T07:56:32.577Z,1.30
2019-04-14T07:59:12.600Z,2.73
2019-04-14T08:01:59.675Z,2.57
2019-04-14T08:04:30.229Z,1.07
2019-04-14T08:06:58.862Z,1.60
2019-04-14T08:09:26.536Z,2.47
2019-04-14T08:11:54.001Z,0.60
2019-04-14T08:14:21.472Z,0.50
2019-04-14T08:16:49.232Z,1.40
2019-04-14T08:19:16.995Z,1.00
2019-04-14T08:21:44.490Z,0.50
2019-04-14T08:24:11.967Z,0.80
2019-04-14T08:26:40.403Z,0.73
2019-04-14T08:29:07.945Z,2.50
2019-04-14T08:31:35.530Z,1.13
2019-04-14T08:34:03.466Z,1.30
2019-04-14T08:36:33.245Z,0.40
2019-04-14T08:39:00.470Z,0.60
2019-04-14T08:41:30.413Z,0.50
2019-04-14T08:44:05.891Z,1.07
2019-04-14T08:46:51.686Z,0.50
2019-04-14T08:49:47.622Z,0.70
2019-04-14T08:52:24.240Z,0.40
2019-04-14T08:55:20.288Z,0.50
2019-04-14T08:58:08.149Z,0.60
2019-04-14T09:00:59.763Z,0.53
2019-04-14T09:03:45.643Z,0.60
2019-04-14T09:06:26.817Z,0.97
2019-04-14T09:09:09.890Z,0.67
2019-04-14T09:11:42.138Z,1.27
2019-04-14T09:14:09.873Z,1.27
2019-04-14T09:16:37.440Z,0.40
2019-04-14T09:19:07.822Z,0.90
2019-04-14T09:21:34.359Z,0.47
2019-04-14T09:24:01.900Z,0.50
2019-04-14T09:26:29.431Z,0.30
2019-04-14T09:28:56.889Z,0.60
2019-04-14T09:31:24.439Z,0.90
2019-04-14T09:33:51.918Z,0.80
2019-04-14T09:36:19.521Z,0.40
2019-04-14T09:38:47.057Z,0.50
2019-04-14T09:41:14.508Z,0.83
2019-04-14T09:43:41.934Z,0.50
2019-04-14T09:46:09.445Z,0.80
2019-04-14T09:48:37.022Z,1.00
2019-04-14T09:51:05.372Z,0.40
2019-04-14T09:53:33.106Z,0.60
2019-04-14T09:56:00.731Z,0.60
2019-04-14T09:58:28.237Z,0.50
2019-04-14T10:00:55.652Z,1.13
2019-04-14T10:03:23.174Z,0.50
2019-04-14T10:05:50.675Z,0.80
2019-04-14T10:08:18.380Z,0.60
2019-04-14T10:10:45.953Z,0.40
2019-04-14T10:13:13.498Z,0.50
2019-04-14T10:15:41.051Z,0.50
2019-04-14T10:18:08.708Z,0.30
2019-04-14T10:20:36.143Z,0.40
2019-04-14T10:23:03.641Z,0.60
2019-04-14T10:25:31.646Z,0.67
2019-04-14T10:27:59.208Z,0.50
2019-04-14T10:30:26.732Z,0.80
2019-04-14T10:32:54.232Z,0.70
2019-04-14T10:35:21.745Z,0.60
2019-04-14T10:37:49.137Z,0.70
2019-04-14T10:40:16.593Z,0.33
2019-04-14T10:42:44.727Z,0.67
2019-04-14T10:45:12.312Z,0.60
2019-04-14T10:47:39.862Z,0.30
2019-04-14T10:50:07.650Z,0.60
2019-04-14T10:52:35.129Z,0.60
2019-04-14T10:55:02.997Z,0.47
2019-04-14T10:57:30.631Z,0.60
2019-04-14T10:59:58.214Z,1.10
2019-04-14T11:02:26.183Z,0.60
2019-04-14T11:04:53.725Z,0.60
2019-04-14T11:07:27.183Z,0.80
2019-04-14T11:09:54.789Z,1.00
2019-04-14T11:12:22.409Z,0.60
2019-04-14T11:14:49.968Z,0.60
2019-04-14T11:17:17.637Z,0.40
2019-04-14T11:19:45.238Z,0.40
2019-04-14T11:22:12.649Z,0.50
2019-04-14T11:24:40.167Z,0.30
2019-04-14T11:27:07.737Z,0.60
2019-04-14T11:29:35.162Z,0.60
2019-04-14T11:32:25.358Z,0.63
2019-04-14T11:35:18.383Z,0.60
2019-04-14T11:38:03.742Z,1.47
2019-04-14T11:40:35.395Z,1.90
2019-04-14T11:43:03.129Z,2.13
2019-04-14T11:45:30.598Z,0.70
2019-04-14T11:47:58.036Z,1.60
2019-04-14T11:50:25.495Z,1.60
2019-04-14T11:52:53.053Z,0.80
2019-04-14T11:55:20.470Z,1.20
2019-04-14T11:57:47.932Z,1.50
2019-04-14T12:00:32.741Z,0.73
2019-04-14T12:03:22.787Z,0.70
2019-04-14T12:06:15.876Z,0.53
2019-04-14T12:09:02.865Z,0.60
2019-04-14T12:11:30.519Z,0.73
2019-04-14T12:13:58.045Z,0.60
2019-04-14T12:16:25.735Z,0.60
2019-04-14T12:18:53.249Z,1.00
2019-04-14T12:21:20.876Z,0.73
2019-04-14T12:23:48.353Z,0.50
2019-04-14T12:26:15.767Z,0.50
2019-04-14T12:28:43.261Z,0.50
2019-04-14T12:31:10.968Z,0.47
2019-04-14T12:33:38.465Z,0.53
2019-04-14T12:36:11.096Z,0.40
2019-04-14T12:38:38.735Z,0.53
2019-04-14T12:41:08.345Z,0.80
2019-04-14T12:43:44.410Z,0.83
2019-04-14T12:46:37.923Z,0.60
2019-04-14T12:49:24.516Z,0.67
2019-04-14T12:52:20.528Z,0.90
2019-04-14T12:54:39.724Z,0.77
2019-04-14T12:57:07.206Z,0.40
2019-04-14T12:59:36.364Z,0.50
2019-04-14T13:02:21.762Z,0.67
2019-04-14T13:04:49.346Z,0.50
2019-04-14T13:07:16.826Z,0.40
2019-04-14T13:09:44.455Z,0.53
2019-04-14T13:12:12.059Z,1.07
2019-04-14T13:14:39.558Z,0.67
2019-04-14T13:17:09.174Z,0.53
2019-04-14T13:19:37.521Z,0.93
2019-04-14T13:22:05.203Z,0.50
2019-04-14T13:24:32.708Z,0.50
2019-04-14T13:27:00.318Z,0.60
2019-04-14T13:29:27.764Z,0.60
2019-04-14T13:31:55.259Z,0.70
2019-04-14T13:34:22.790Z,0.57
2019-04-14T13:36:50.265Z,0.50
2019-04-14T13:39:17.974Z,0.50
2019-04-14T13:41:45.481Z,0.60
2019-04-14T13:44:12.989Z,0.60
2019-04-14T13:46:40.789Z,0.70
2019-04-14T13:49:08.217Z,0.60
2019-04-14T13:51:35.805Z,0.83
2019-04-14T13:54:03.624Z,0.70
2019-04-14T13:56:31.107Z,0.87
2019-04-14T13:58:59.101Z,0.77
2019-04-14T14:01:26.621Z,1.00
2019-04-14T14:03:54.194Z,0.90
2019-04-14T14:06:21.734Z,0.83
2019-04-14T14:08:49.208Z,0.70
2019-04-14T14:11:32.578Z,0.90
2019-04-14T14:14:06.334Z,0.73
2019-04-14T14:16:49.680Z,0.80
2019-04-14T14:19:52.055Z,0.87
2019-04-14T14:22:32.694Z,0.80
2019-04-14T14:25:07.893Z,1.00
2019-04-14T14:27:35.544Z,0.80
2019-04-14T14:30:03.351Z,0.90
2019-04-14T14:32:33.458Z,1.10
2019-04-14T14:35:01.003Z,0.83
2019-04-14T14:37:28.850Z,1.00
2019-04-14T14:39:56.340Z,0.80
2019-04-14T14:42:23.800Z,0.80
2019-04-14T14:44:57.870Z,0.80
2019-04-14T14:47:28.223Z,1.00
2019-04-14T14:50:21.253Z,1.10
2019-04-14T14:52:48.837Z,0.97
2019-04-14T14:55:16.388Z,1.03
2019-04-14T14:57:43.871Z,0.90
2019-04-14T15:00:27.802Z,1.23
2019-04-14T15:02:55.309Z,0.70
2019-04-14T15:05:22.760Z,1.40
2019-04-14T15:07:50.292Z,1.03
2019-04-14T15:10:17.762Z,1.00
2019-04-14T15:12:45.145Z,0.90
2019-04-14T15:15:12.706Z,1.20
2019-04-14T15:17:40.420Z,1.50
2019-04-14T15:20:08.151Z,1.00
2019-04-14T15:22:35.644Z,1.40
2019-04-14T15:25:03.513Z,0.70
2019-04-14T15:27:31.067Z,1.10
2019-04-14T15:29:58.796Z,1.00
2019-04-14T15:32:26.250Z,0.90
2019-04-14T15:34:53.695Z,1.40
2019-04-14T15:37:21.138Z,1.50
2019-04-14T15:39:48.917Z,1.13
2019-04-14T15:42:16.383Z,1.40
2019-04-14T15:44:44.019Z,1.40
2019-04-14T15:47:11.562Z,0.90
2019-04-14T15:49:39.237Z,1.30
2019-04-14T15:52:06.655Z,1.30
2019-04-14T15:54:34.179Z,1.17
2019-04-14T15:57:06.973Z,1.30
2019-04-14T15:59:52.890Z,1.33
2019-04-14T16:02:38.634Z,1.13
2019-04-14T16:05:23.135Z,1.10
2019-04-14T16:08:13.279Z,1.40
2019-04-14T16:11:07.538Z,1.30
2019-04-14T16:13:58.821Z,0.93
2019-04-14T16:16:42.988Z,1.03
2019-04-14T16:19:45.188Z,1.27
2019-04-14T16:22:12.751Z,1.30
2019-04-14T16:24:40.251Z,1.33
2019-04-14T16:27:25.589Z,1.17
2019-04-14T16:30:12.745Z,1.07
2019-04-14T16:32:59.444Z,0.73
2019-04-14T16:35:28.330Z,1.10
2019-04-14T16:37:55.881Z,1.00
2019-04-14T16:40:23.409Z,1.37
2019-04-14T16:42:50.921Z,1.17
2019-04-14T16:45:18.542Z,1.50
2019-04-14T16:47:46.121Z,1.50
2019-04-14T16:50:13.789Z,1.47
2019-04-14T16:52:59.461Z,1.77
2019-04-14T16:55:35.362Z,1.20
2019-04-14T16:58:28.645Z,1.93
2019-04-14T17:01:00.675Z,1.50
2019-04-14T17:03:28.270Z,1.03
2019-04-14T17:05:56.628Z,1.20
2019-04-14T17:08:24.224Z,1.87
2019-04-14T17:10:51.783Z,1.10
2019-04-14T17:13:19.228Z,1.40
2019-04-14T17:16:02.193Z,1.33
2019-04-14T17:18:41.934Z,1.37
2019-04-14T17:21:41.234Z,1.57
2019-04-14T17:24:31.051Z,1.80
2019-04-14T17:27:01.216Z,1.80
2019-04-14T17:29:55.003Z,2.20
2019-04-14T17:32:40.629Z,1.60
2019-04-14T17:35:22.798Z,1.30
2019-04-14T17:37:57.033Z,1.27
2019-04-14T17:40:58.829Z,1.83
2019-04-14T17:43:33.024Z,1.50
2019-04-14T17:46:10.939Z,1.70
2019-04-14T17:48:56.444Z,1.67
2019-04-14T17:51:41.558Z,2.10
2019-04-14T17:54:37.509Z,2.10
2019-04-14T17:57:27.342Z,2.27
2019-04-14T18:00:06.692Z,2.60
2019-04-14T18:02:43.091Z,3.23
2019-04-14T18:05:19.033Z,3.67
2019-04-14T18:07:53.492Z,3.73
2019-04-14T18:10:41.780Z,3.60
2019-04-14T18:13:24.244Z,4.37
2019-04-14T18:16:09.913Z,3.37
2019-04-14T18:19:00.290Z,3.50
2019-04-14T18:21:27.763Z,2.70
2019-04-14T18:23:55.234Z,3.47
2019-04-14T18:26:22.679Z,2.70
2019-04-14T18:29:12.362Z,4.10
2019-04-14T18:31:45.876Z,3.93
2019-04-14T18:34:35.633Z,7.33
2019-04-14T18:37:10.970Z,8.00
2019-04-14T18:40:04.250Z,12.87
2019-04-14T18:43:03.118Z,7.53
2019-04-14T18:45:39.499Z,5.73
2019-04-14T18:48:18.725Z,4.43
2019-04-14T18:51:08.199Z,2.37
2019-04-14T18:53:50.279Z,2.87
2019-04-14T18:56:42.249Z,2.20
2019-04-14T18:59:28.144Z,2.70
2019-04-14T19:01:55.880Z,2.87
2019-04-14T19:04:23.331Z,3.00
2019-04-14T19:06:50.831Z,2.93
2019-04-14T19:09:18.436Z,2.20
2019-04-14T19:12:05.501Z,2.27
2019-04-14T19:14:36.918Z,1.90
2019-04-14T19:17:11.268Z,2.50
2019-04-14T19:19:41.609Z,2.07
2019-04-14T19:22:09.069Z,2.43
2019-04-14T19:24:36.467Z,2.73
2019-04-14T19:27:04.066Z,3.30
2019-04-14T19:29:31.534Z,3.13
2019-04-14T19:31:59.015Z,3.20
2019-04-14T19:34:26.442Z,3.30
2019-04-14T19:36:54.434Z,3.60
2019-04-14T19:39:22.177Z,2.60
2019-04-14T19:41:49.730Z,2.83
2019-04-14T19:44:17.109Z,2.90
2019-04-14T19:46:44.756Z,2.60
2019-04-14T19:49:14.358Z,2.30
2019-04-14T19:51:41.906Z,2.67
2019-04-14T19:54:09.604Z,3.40
2019-04-14T19:56:37.093Z,2.90
2019-04-14T19:59:04.846Z,2.93
2019-04-14T20:01:32.344Z,1.90
2019-04-14T20:04:00.084Z,1.70
2019-04-14T20:06:27.665Z,1.97
2019-04-14T20:08:55.189Z,2.30
2019-04-14T20:11:22.809Z,2.10
2019-04-14T20:13:50.275Z,1.97
2019-04-14T20:16:37.244Z,1.70
2019-04-14T20:19:24.777Z,1.80
2019-04-14T20:22:12.177Z,2.20
2019-04-14T20:24:52.713Z,2.07
2019-04-14T20:27:31.267Z,2.27
2019-04-14T20:30:00.409Z,2.13
2019-04-14T20:32:32.862Z,1.67
2019-04-14T20:35:00.439Z,2.40
2019-04-14T20:37:27.968Z,2.17
2019-04-14T20:39:55.526Z,2.40
2019-04-14T20:42:23.017Z,2.53
2019-04-14T20:44:50.487Z,2.30
2019-04-14T20:47:17.857Z,2.67
2019-04-14T20:49:45.402Z,1.70
2019-04-14T20:52:12.884Z,2.47
2019-04-14T20:54:40.416Z,2.37
2019-04-14T20:57:07.865Z,2.80
2019-04-14T20:59:35.565Z,2.33
2019-04-14T21:02:24.747Z,2.60
2019-04-14T21:05:12.185Z,2.70
2019-04-14T21:07:57.668Z,2.60
2019-04-14T21:10:37.081Z,2.40
2019-04-14T21:13:18.357Z,2.20
2019-04-14T21:15:54.143Z,2.50
2019-04-14T21:18:53.155Z,2.33
2019-04-14T21:21:46.369Z,3.13
2019-04-14T21:24:30.588Z,2.87
2019-04-14T21:27:05.998Z,2.10
2019-04-14T21:29:58.781Z,2.60
2019-04-14T21:32:30.711Z,3.13
2019-04-14T21:35:36.039Z,3.57
2019-04-14T21:38:22.999Z,3.40
2019-04-14T21:40:56.571Z,3.47
2019-04-14T21:43:24.132Z,2.80
2019-04-14T21:45:51.697Z,2.73
2019-04-14T21:48:19.155Z,2.10
2019-04-14T21:50:46.623Z,2.40
2019-04-14T21:53:14.071Z,2.07
2019-04-14T21:55:41.543Z,2.30
2019-04-14T21:58:26.705Z,2.00
2019-04-14T22:01:49.275Z,2.27
2019-04-14T22:04:51.481Z,2.63
2019-04-14T22:07:41.273Z,1.67
2019-04-14T22:10:20.919Z,2.57
2019-04-14T22:12:48.558Z,2.00
2019-04-14T22:15:16.193Z,2.13
2019-04-14T22:17:44.137Z,2.50
2019-04-14T22:20:11.862Z,2.47
2019-04-14T22:22:39.399Z,2.70
2019-04-14T22:25:07.003Z,2.80
2019-04-14T22:27:34.477Z,2.93
2019-04-14T22:30:01.974Z,3.00
2019-04-14T22:32:29.500Z,2.23
2019-04-14T22:34:56.936Z,3.10
2019-04-14T22:37:24.370Z,2.03
2019-04-14T22:39:51.850Z,3.00
2019-04-14T22:42:19.348Z,2.57
2019-04-14T22:44:46.821Z,2.57
2019-04-14T22:47:14.258Z,3.23
2019-04-14T22:49:41.793Z,3.33
2019-04-14T22:52:09.264Z,3.27
2019-04-14T22:54:36.692Z,3.00
2019-04-14T22:57:04.115Z,3.40
2019-04-14T22:59:31.573Z,2.63
2019-04-14T23:02:06.607Z,2.37
2019-04-14T23:04:54.702Z,2.43
2019-04-14T23:07:40.332Z,2.70
2019-04-14T23:10:25.894Z,2.57
2019-04-14T23:13:04.778Z,2.60
2019-04-14T23:15:57.721Z,2.43
2019-04-14T23:18:32.680Z,4.97
2019-04-14T23:21:25.786Z,4.60
2019-04-14T23:24:18.291Z,3.80
2019-04-14T23:26:52.322Z,3.00
2019-04-14T23:29:15.138Z,2.00
2019-04-14T23:31:42.733Z,2.13
2019-04-14T23:34:10.321Z,2.03
2019-04-14T23:36:37.793Z,2.87
2019-04-14T23:39:10.016Z,3.50
2019-04-14T23:41:37.577Z,2.93
2019-04-14T23:44:05.131Z,2.63
2019-04-14T23:46:32.504Z,3.30
2019-04-14T23:48:59.976Z,3.80
2019-04-14T23:51:27.434Z,3.27
2019-04-14T23:53:54.888Z,3.60
2019-04-14T23:56:22.440Z,3.80
2019-04-14T23:58:49.994Z,3.87
